sensor_id;sensor_type;location;lat;lon;timestamp;P1;durP1;ratioP1;P2;durP2;ratioP2
35306;SDS011;21420;52.196;21.416;2023-07-29T00:01:31;26.80;;;7.20;;
35306;SDS011;21420;52.196;21.416;2023-07-29T00:03:59;22.50;;;7.60;;
35306;SDS011;21420;52.196;21.416;2023-07-29T00:06:26;41.40;;;7.80;;
35306;SDS011;21420;52.196;21.416;2023-07-29T00:08:53;47.70;;;7.80;;
35306;SDS011;21420;52.196;21.416;2023-07-29T00:11:20;40.40;;;7.70;;
35306;SDS011;21420;52.196;21.416;2023-07-29T00:13:46;30.20;;;7.30;;
35306;SDS011;21420;52.196;21.416;2023-07-29T00:16:13;26.80;;;7.60;;
35306;SDS011;21420;52.196;21.416;2023-07-29T00:18:42;20.10;;;6.80;;
35306;SDS011;21420;52.196;21.416;2023-07-29T00:21:09;24.10;;;7.00;;
35306;SDS011;21420;52.196;21.416;2023-07-29T00:23:36;16.60;;;7.60;;
35306;SDS011;21420;52.196;21.416;2023-07-29T00:26:03;20.30;;;7.80;;
35306;SDS011;21420;52.196;21.416;2023-07-29T00:28:29;10.40;;;7.10;;
35306;SDS011;21420;52.196;21.416;2023-07-29T00:30:56;14.30;;;7.20;;
35306;SDS011;21420;52.196;21.416;2023-07-29T00:33:23;29.00;;;8.30;;
35306;SDS011;21420;52.196;21.416;2023-07-29T00:35:50;35.60;;;7.70;;
35306;SDS011;21420;52.196;21.416;2023-07-29T00:38:16;53.70;;;6.70;;
35306;SDS011;21420;52.196;21.416;2023-07-29T00:40:43;47.80;;;8.00;;
35306;SDS011;21420;52.196;21.416;2023-07-29T00:43:10;37.50;;;7.70;;
35306;SDS011;21420;52.196;21.416;2023-07-29T00:45:37;41.00;;;7.60;;
35306;SDS011;21420;52.196;21.416;2023-07-29T00:48:06;39.00;;;7.90;;
35306;SDS011;21420;52.196;21.416;2023-07-29T00:50:33;50.60;;;9.40;;
35306;SDS011;21420;52.196;21.416;2023-07-29T00:52:59;56.80;;;8.60;;
35306;SDS011;21420;52.196;21.416;2023-07-29T00:55:27;58.10;;;7.90;;
35306;SDS011;21420;52.196;21.416;2023-07-29T00:57:54;74.60;;;6.90;;
35306;SDS011;21420;52.196;21.416;2023-07-29T01:00:21;51.60;;;5.70;;
35306;SDS011;21420;52.196;21.416;2023-07-29T01:02:48;53.50;;;6.00;;
35306;SDS011;21420;52.196;21.416;2023-07-29T01:05:16;54.40;;;5.90;;
35306;SDS011;21420;52.196;21.416;2023-07-29T01:07:47;49.20;;;6.10;;
35306;SDS011;21420;52.196;21.416;2023-07-29T01:10:35;45.40;;;6.30;;
35306;SDS011;21420;52.196;21.416;2023-07-29T01:13:10;56.60;;;7.30;;
35306;SDS011;21420;52.196;21.416;2023-07-29T01:16:17;36.20;;;6.50;;
35306;SDS011;21420;52.196;21.416;2023-07-29T01:18:50;34.60;;;6.70;;
35306;SDS011;21420;52.196;21.416;2023-07-29T01:21:20;28.00;;;6.40;;
35306;SDS011;21420;52.196;21.416;2023-07-29T01:23:51;25.30;;;7.40;;
35306;SDS011;21420;52.196;21.416;2023-07-29T01:26:19;22.30;;;8.50;;
35306;SDS011;21420;52.196;21.416;2023-07-29T01:28:46;21.10;;;8.20;;
35306;SDS011;21420;52.196;21.416;2023-07-29T01:31:23;19.20;;;8.20;;
35306;SDS011;21420;52.196;21.416;2023-07-29T01:34:01;27.40;;;8.90;;
35306;SDS011;21420;52.196;21.416;2023-07-29T01:36:39;47.20;;;8.80;;
35306;SDS011;21420;52.196;21.416;2023-07-29T01:39:12;31.10;;;7.70;;
35306;SDS011;21420;52.196;21.416;2023-07-29T01:41:41;79.10;;;8.10;;
35306;SDS011;21420;52.196;21.416;2023-07-29T01:44:10;60.40;;;7.60;;
35306;SDS011;21420;52.196;21.416;2023-07-29T01:46:38;79.30;;;8.20;;
35306;SDS011;21420;52.196;21.416;2023-07-29T01:49:06;60.00;;;6.80;;
35306;SDS011;21420;52.196;21.416;2023-07-29T01:51:32;50.10;;;5.80;;
35306;SDS011;21420;52.196;21.416;2023-07-29T01:53:59;28.10;;;5.10;;
35306;SDS011;21420;52.196;21.416;2023-07-29T01:56:26;47.50;;;5.50;;
35306;SDS011;21420;52.196;21.416;2023-07-29T01:58:54;35.80;;;5.00;;
35306;SDS011;21420;52.196;21.416;2023-07-29T02:01:21;21.00;;;5.00;;
35306;SDS011;21420;52.196;21.416;2023-07-29T02:03:48;6.50;;;3.90;;
35306;SDS011;21420;52.196;21.416;2023-07-29T02:06:21;7.90;;;3.90;;
35306;SDS011;21420;52.196;21.416;2023-07-29T02:08:48;12.70;;;4.40;;
35306;SDS011;21420;52.196;21.416;2023-07-29T02:11:15;20.50;;;4.80;;
35306;SDS011;21420;52.196;21.416;2023-07-29T02:13:42;14.10;;;5.50;;
35306;SDS011;21420;52.196;21.416;2023-07-29T02:19:20;36.60;;;5.30;;
35306;SDS011;21420;52.196;21.416;2023-07-29T02:21:46;18.60;;;4.00;;
35306;SDS011;21420;52.196;21.416;2023-07-29T02:24:13;24.00;;;5.40;;
35306;SDS011;21420;52.196;21.416;2023-07-29T02:26:40;13.20;;;4.70;;
35306;SDS011;21420;52.196;21.416;2023-07-29T02:29:07;18.80;;;4.70;;
35306;SDS011;21420;52.196;21.416;2023-07-29T02:31:34;19.90;;;3.90;;
35306;SDS011;21420;52.196;21.416;2023-07-29T02:34:03;20.90;;;4.20;;
35306;SDS011;21420;52.196;21.416;2023-07-29T02:36:30;23.20;;;4.10;;
35306;SDS011;21420;52.196;21.416;2023-07-29T02:38:57;9.50;;;3.70;;
35306;SDS011;21420;52.196;21.416;2023-07-29T02:41:24;21.50;;;3.40;;
35306;SDS011;21420;52.196;21.416;2023-07-29T02:43:51;16.10;;;3.50;;
35306;SDS011;21420;52.196;21.416;2023-07-29T02:46:18;10.40;;;3.50;;
35306;SDS011;21420;52.196;21.416;2023-07-29T02:48:45;7.30;;;3.80;;
35306;SDS011;21420;52.196;21.416;2023-07-29T02:51:12;14.90;;;4.00;;
35306;SDS011;21420;52.196;21.416;2023-07-29T02:53:38;9.80;;;3.30;;
35306;SDS011;21420;52.196;21.416;2023-07-29T02:56:05;4.90;;;3.30;;
35306;SDS011;21420;52.196;21.416;2023-07-29T02:58:36;9.60;;;3.00;;
35306;SDS011;21420;52.196;21.416;2023-07-29T03:01:03;12.70;;;3.40;;
35306;SDS011;21420;52.196;21.416;2023-07-29T03:03:32;17.30;;;3.50;;
35306;SDS011;21420;52.196;21.416;2023-07-29T03:06:00;11.00;;;3.70;;
35306;SDS011;21420;52.196;21.416;2023-07-29T03:08:29;30.20;;;4.00;;
35306;SDS011;21420;52.196;21.416;2023-07-29T03:10:56;39.30;;;4.10;;
35306;SDS011;21420;52.196;21.416;2023-07-29T03:13:23;19.90;;;3.30;;
35306;SDS011;21420;52.196;21.416;2023-07-29T03:15:50;16.20;;;3.10;;
35306;SDS011;21420;52.196;21.416;2023-07-29T03:18:17;11.90;;;2.50;;
35306;SDS011;21420;52.196;21.416;2023-07-29T03:20:44;6.90;;;2.20;;
35306;SDS011;21420;52.196;21.416;2023-07-29T03:23:10;3.90;;;2.40;;
35306;SDS011;21420;52.196;21.416;2023-07-29T03:25:37;11.90;;;2.30;;
35306;SDS011;21420;52.196;21.416;2023-07-29T03:28:04;18.60;;;2.60;;
35306;SDS011;21420;52.196;21.416;2023-07-29T03:30:31;16.50;;;2.60;;
35306;SDS011;21420;52.196;21.416;2023-07-29T03:32:57;20.60;;;2.70;;
35306;SDS011;21420;52.196;21.416;2023-07-29T03:35:24;17.60;;;2.40;;
35306;SDS011;21420;52.196;21.416;2023-07-29T03:37:51;19.10;;;2.60;;
35306;SDS011;21420;52.196;21.416;2023-07-29T03:40:18;23.60;;;2.90;;
35306;SDS011;21420;52.196;21.416;2023-07-29T03:42:44;20.40;;;3.10;;
35306;SDS011;21420;52.196;21.416;2023-07-29T03:45:11;27.60;;;2.90;;
35306;SDS011;21420;52.196;21.416;2023-07-29T03:47:38;25.50;;;3.00;;
35306;SDS011;21420;52.196;21.416;2023-07-29T03:50:05;20.60;;;3.00;;
35306;SDS011;21420;52.196;21.416;2023-07-29T03:52:32;14.50;;;3.30;;
35306;SDS011;21420;52.196;21.416;2023-07-29T03:54:59;22.40;;;3.50;;
35306;SDS011;21420;52.196;21.416;2023-07-29T03:57:25;23.40;;;3.30;;
35306;SDS011;21420;52.196;21.416;2023-07-29T03:59:53;21.90;;;4.00;;
35306;SDS011;21420;52.196;21.416;2023-07-29T04:02:19;24.90;;;4.10;;
35306;SDS011;21420;52.196;21.416;2023-07-29T04:04:46;35.40;;;4.50;;
35306;SDS011;21420;52.196;21.416;2023-07-29T04:07:14;39.50;;;4.60;;
35306;SDS011;21420;52.196;21.416;2023-07-29T04:09:41;46.90;;;5.00;;
35306;SDS011;21420;52.196;21.416;2023-07-29T04:12:10;57.60;;;5.90;;
35306;SDS011;21420;52.196;21.416;2023-07-29T04:14:36;47.10;;;5.70;;
35306;SDS011;21420;52.196;21.416;2023-07-29T04:17:03;35.30;;;6.40;;
35306;SDS011;21420;52.196;21.416;2023-07-29T04:19:30;35.00;;;6.10;;
35306;SDS011;21420;52.196;21.416;2023-07-29T04:21:57;23.50;;;5.30;;
35306;SDS011;21420;52.196;21.416;2023-07-29T04:24:23;21.80;;;6.10;;
35306;SDS011;21420;52.196;21.416;2023-07-29T04:26:50;26.90;;;6.40;;
35306;SDS011;21420;52.196;21.416;2023-07-29T04:29:17;22.50;;;6.00;;
35306;SDS011;21420;52.196;21.416;2023-07-29T04:31:43;45.30;;;7.40;;
35306;SDS011;21420;52.196;21.416;2023-07-29T04:34:10;33.30;;;6.90;;
35306;SDS011;21420;52.196;21.416;2023-07-29T04:36:37;30.30;;;7.60;;
35306;SDS011;21420;52.196;21.416;2023-07-29T04:39:05;31.50;;;7.80;;
35306;SDS011;21420;52.196;21.416;2023-07-29T04:41:32;35.60;;;8.30;;
35306;SDS011;21420;52.196;21.416;2023-07-29T04:43:58;21.00;;;8.60;;
35306;SDS011;21420;52.196;21.416;2023-07-29T04:46:25;23.60;;;11.20;;
35306;SDS011;21420;52.196;21.416;2023-07-29T04:48:52;24.50;;;10.50;;
35306;SDS011;21420;52.196;21.416;2023-07-29T04:51:18;27.60;;;10.80;;
35306;SDS011;21420;52.196;21.416;2023-07-29T04:53:45;29.90;;;10.50;;
35306;SDS011;21420;52.196;21.416;2023-07-29T04:56:12;31.80;;;11.00;;
35306;SDS011;21420;52.196;21.416;2023-07-29T04:58:44;29.20;;;10.60;;
35306;SDS011;21420;52.196;21.416;2023-07-29T05:01:10;31.90;;;10.30;;
35306;SDS011;21420;52.196;21.416;2023-07-29T05:03:37;24.80;;;10.50;;
35306;SDS011;21420;52.196;21.416;2023-07-29T05:06:06;28.40;;;11.40;;
35306;SDS011;21420;52.196;21.416;2023-07-29T05:08:33;21.60;;;11.80;;
35306;SDS011;21420;52.196;21.416;2023-07-29T05:11:00;22.50;;;10.20;;
35306;SDS011;21420;52.196;21.416;2023-07-29T05:13:27;21.20;;;10.70;;
35306;SDS011;21420;52.196;21.416;2023-07-29T05:15:54;22.30;;;11.00;;
35306;SDS011;21420;52.196;21.416;2023-07-29T05:18:21;19.70;;;11.50;;
35306;SDS011;21420;52.196;21.416;2023-07-29T05:20:48;13.30;;;10.90;;
35306;SDS011;21420;52.196;21.416;2023-07-29T05:23:14;17.60;;;11.50;;
35306;SDS011;21420;52.196;21.416;2023-07-29T05:25:41;19.70;;;12.00;;
35306;SDS011;21420;52.196;21.416;2023-07-29T05:28:08;32.50;;;12.20;;
35306;SDS011;21420;52.196;21.416;2023-07-29T05:30:34;29.10;;;12.50;;
35306;SDS011;21420;52.196;21.416;2023-07-29T05:33:08;13.90;;;11.60;;
35306;SDS011;21420;52.196;21.416;2023-07-29T05:35:35;22.70;;;12.40;;
35306;SDS011;21420;52.196;21.416;2023-07-29T05:38:02;16.60;;;11.50;;
35306;SDS011;21420;52.196;21.416;2023-07-29T05:40:29;17.60;;;13.30;;
35306;SDS011;21420;52.196;21.416;2023-07-29T05:42:56;18.70;;;11.70;;
35306;SDS011;21420;52.196;21.416;2023-07-29T05:45:23;15.30;;;13.30;;
35306;SDS011;21420;52.196;21.416;2023-07-29T05:47:50;14.10;;;12.20;;
35306;SDS011;21420;52.196;21.416;2023-07-29T05:50:17;14.80;;;11.50;;
35306;SDS011;21420;52.196;21.416;2023-07-29T05:52:43;14.30;;;12.90;;
35306;SDS011;21420;52.196;21.416;2023-07-29T05:55:10;13.90;;;12.40;;
35306;SDS011;21420;52.196;21.416;2023-07-29T05:57:37;14.50;;;12.90;;
35306;SDS011;21420;52.196;21.416;2023-07-29T06:00:06;14.90;;;13.30;;
35306;SDS011;21420;52.196;21.416;2023-07-29T06:02:38;14.00;;;12.50;;
35306;SDS011;21420;52.196;21.416;2023-07-29T06:05:06;15.90;;;13.20;;
35306;SDS011;21420;52.196;21.416;2023-07-29T06:07:33;14.20;;;12.80;;
35306;SDS011;21420;52.196;21.416;2023-07-29T06:10:00;16.30;;;12.60;;
35306;SDS011;21420;52.196;21.416;2023-07-29T06:12:27;18.40;;;12.70;;
35306;SDS011;21420;52.196;21.416;2023-07-29T06:14:54;16.40;;;13.60;;
35306;SDS011;21420;52.196;21.416;2023-07-29T06:17:20;16.60;;;14.20;;
35306;SDS011;21420;52.196;21.416;2023-07-29T06:19:47;14.90;;;12.60;;
35306;SDS011;21420;52.196;21.416;2023-07-29T06:22:14;14.90;;;13.20;;
35306;SDS011;21420;52.196;21.416;2023-07-29T06:24:40;15.50;;;13.80;;
35306;SDS011;21420;52.196;21.416;2023-07-29T06:27:07;14.50;;;12.90;;
35306;SDS011;21420;52.196;21.416;2023-07-29T06:29:34;14.20;;;12.30;;
35306;SDS011;21420;52.196;21.416;2023-07-29T06:32:01;15.10;;;13.60;;
35306;SDS011;21420;52.196;21.416;2023-07-29T06:34:27;14.90;;;13.40;;
35306;SDS011;21420;52.196;21.416;2023-07-29T06:36:54;14.00;;;12.70;;
35306;SDS011;21420;52.196;21.416;2023-07-29T06:39:21;14.40;;;13.10;;
35306;SDS011;21420;52.196;21.416;2023-07-29T06:41:47;14.70;;;13.20;;
35306;SDS011;21420;52.196;21.416;2023-07-29T06:44:14;14.60;;;13.30;;
35306;SDS011;21420;52.196;21.416;2023-07-29T06:46:41;14.80;;;13.40;;
35306;SDS011;21420;52.196;21.416;2023-07-29T06:49:08;15.80;;;14.00;;
35306;SDS011;21420;52.196;21.416;2023-07-29T06:51:34;16.20;;;14.70;;
35306;SDS011;21420;52.196;21.416;2023-07-29T06:54:02;17.50;;;14.80;;
35306;SDS011;21420;52.196;21.416;2023-07-29T06:56:29;16.20;;;14.60;;
35306;SDS011;21420;52.196;21.416;2023-07-29T06:58:56;15.00;;;13.60;;
35306;SDS011;21420;52.196;21.416;2023-07-29T07:01:23;14.00;;;12.70;;
35306;SDS011;21420;52.196;21.416;2023-07-29T07:03:49;14.60;;;13.10;;
35306;SDS011;21420;52.196;21.416;2023-07-29T07:06:16;17.50;;;15.70;;
35306;SDS011;21420;52.196;21.416;2023-07-29T07:08:43;16.00;;;14.50;;
35306;SDS011;21420;52.196;21.416;2023-07-29T07:11:10;16.40;;;14.80;;
35306;SDS011;21420;52.196;21.416;2023-07-29T07:13:37;16.60;;;15.10;;
35306;SDS011;21420;52.196;21.416;2023-07-29T07:16:03;16.60;;;14.80;;
35306;SDS011;21420;52.196;21.416;2023-07-29T07:18:30;16.30;;;14.80;;
35306;SDS011;21420;52.196;21.416;2023-07-29T07:20:57;15.80;;;14.40;;
35306;SDS011;21420;52.196;21.416;2023-07-29T07:23:23;14.50;;;13.20;;
35306;SDS011;21420;52.196;21.416;2023-07-29T07:25:50;15.80;;;14.40;;
35306;SDS011;21420;52.196;21.416;2023-07-29T07:28:17;15.40;;;14.00;;
35306;SDS011;21420;52.196;21.416;2023-07-29T07:30:44;12.50;;;11.30;;
35306;SDS011;21420;52.196;21.416;2023-07-29T07:33:10;13.40;;;12.10;;
35306;SDS011;21420;52.196;21.416;2023-07-29T07:35:37;14.00;;;12.60;;
35306;SDS011;21420;52.196;21.416;2023-07-29T07:38:04;13.00;;;11.80;;
35306;SDS011;21420;52.196;21.416;2023-07-29T07:40:33;14.00;;;12.70;;
35306;SDS011;21420;52.196;21.416;2023-07-29T07:43:00;13.70;;;12.50;;
35306;SDS011;21420;52.196;21.416;2023-07-29T07:45:26;13.30;;;11.60;;
35306;SDS011;21420;52.196;21.416;2023-07-29T07:47:53;13.00;;;11.80;;
35306;SDS011;21420;52.196;21.416;2023-07-29T07:50:20;11.00;;;10.10;;
35306;SDS011;21420;52.196;21.416;2023-07-29T07:52:46;12.60;;;11.50;;
35306;SDS011;21420;52.196;21.416;2023-07-29T07:55:13;12.70;;;11.60;;
35306;SDS011;21420;52.196;21.416;2023-07-29T07:57:40;12.80;;;11.60;;
35306;SDS011;21420;52.196;21.416;2023-07-29T08:00:07;13.10;;;11.90;;
35306;SDS011;21420;52.196;21.416;2023-07-29T08:02:41;11.80;;;10.70;;
35306;SDS011;21420;52.196;21.416;2023-07-29T08:05:08;11.70;;;10.70;;
35306;SDS011;21420;52.196;21.416;2023-07-29T08:07:34;11.80;;;10.70;;
35306;SDS011;21420;52.196;21.416;2023-07-29T08:10:01;10.70;;;9.70;;
35306;SDS011;21420;52.196;21.416;2023-07-29T08:12:28;10.50;;;8.60;;
35306;SDS011;21420;52.196;21.416;2023-07-29T08:14:54;8.10;;;7.00;;
35306;SDS011;21420;52.196;21.416;2023-07-29T08:17:21;8.90;;;8.20;;
35306;SDS011;21420;52.196;21.416;2023-07-29T08:19:48;10.30;;;7.10;;
35306;SDS011;21420;52.196;21.416;2023-07-29T08:22:14;9.20;;;8.20;;
35306;SDS011;21420;52.196;21.416;2023-07-29T08:24:43;7.70;;;7.00;;
35306;SDS011;21420;52.196;21.416;2023-07-29T08:27:10;4.70;;;4.30;;
35306;SDS011;21420;52.196;21.416;2023-07-29T08:29:36;8.00;;;7.20;;
35306;SDS011;21420;52.196;21.416;2023-07-29T08:32:03;7.00;;;6.40;;
35306;SDS011;21420;52.196;21.416;2023-07-29T08:34:30;7.10;;;6.50;;
35306;SDS011;21420;52.196;21.416;2023-07-29T08:36:56;8.40;;;6.80;;
35306;SDS011;21420;52.196;21.416;2023-07-29T08:39:23;5.90;;;5.40;;
35306;SDS011;21420;52.196;21.416;2023-07-29T08:42:07;6.60;;;5.90;;
35306;SDS011;21420;52.196;21.416;2023-07-29T08:44:40;6.80;;;5.90;;
35306;SDS011;21420;52.196;21.416;2023-07-29T08:47:09;7.20;;;6.60;;
35306;SDS011;21420;52.196;21.416;2023-07-29T08:49:36;7.40;;;6.90;;
35306;SDS011;21420;52.196;21.416;2023-07-29T08:52:04;7.40;;;6.80;;
35306;SDS011;21420;52.196;21.416;2023-07-29T08:54:33;7.60;;;6.80;;
35306;SDS011;21420;52.196;21.416;2023-07-29T08:56:59;7.50;;;6.90;;
35306;SDS011;21420;52.196;21.416;2023-07-29T08:59:27;6.70;;;6.10;;
35306;SDS011;21420;52.196;21.416;2023-07-29T09:01:55;5.50;;;4.80;;
35306;SDS011;21420;52.196;21.416;2023-07-29T09:04:23;6.90;;;6.30;;
35306;SDS011;21420;52.196;21.416;2023-07-29T09:06:52;6.70;;;6.20;;
35306;SDS011;21420;52.196;21.416;2023-07-29T09:11:48;4.80;;;4.30;;
35306;SDS011;21420;52.196;21.416;2023-07-29T09:14:15;4.50;;;4.20;;
35306;SDS011;21420;52.196;21.416;2023-07-29T09:16:42;4.80;;;4.40;;
35306;SDS011;21420;52.196;21.416;2023-07-29T09:19:09;4.50;;;4.10;;
35306;SDS011;21420;52.196;21.416;2023-07-29T09:21:38;7.90;;;4.80;;
35306;SDS011;21420;52.196;21.416;2023-07-29T09:24:06;9.20;;;4.70;;
35306;SDS011;21420;52.196;21.416;2023-07-29T09:26:34;8.40;;;4.60;;
35306;SDS011;21420;52.196;21.416;2023-07-29T09:29:02;4.40;;;4.10;;
35306;SDS011;21420;52.196;21.416;2023-07-29T09:31:29;5.10;;;4.10;;
35306;SDS011;21420;52.196;21.416;2023-07-29T09:33:57;4.10;;;3.80;;
35306;SDS011;21420;52.196;21.416;2023-07-29T09:36:26;4.40;;;4.00;;
35306;SDS011;21420;52.196;21.416;2023-07-29T09:38:53;4.00;;;3.70;;
35306;SDS011;21420;52.196;21.416;2023-07-29T09:41:25;4.90;;;3.80;;
35306;SDS011;21420;52.196;21.416;2023-07-29T09:43:56;3.40;;;3.10;;
35306;SDS011;21420;52.196;21.416;2023-07-29T09:46:34;3.10;;;2.90;;
35306;SDS011;21420;52.196;21.416;2023-07-29T09:49:04;2.20;;;2.10;;
35306;SDS011;21420;52.196;21.416;2023-07-29T09:51:36;2.30;;;2.10;;
35306;SDS011;21420;52.196;21.416;2023-07-29T09:54:05;3.00;;;2.60;;
35306;SDS011;21420;52.196;21.416;2023-07-29T09:56:32;2.80;;;2.60;;
35306;SDS011;21420;52.196;21.416;2023-07-29T09:58:59;5.10;;;2.30;;
35306;SDS011;21420;52.196;21.416;2023-07-29T10:01:28;2.80;;;2.60;;
35306;SDS011;21420;52.196;21.416;2023-07-29T10:03:56;2.70;;;2.30;;
35306;SDS011;21420;52.196;21.416;2023-07-29T10:06:23;2.80;;;2.60;;
35306;SDS011;21420;52.196;21.416;2023-07-29T10:08:51;3.20;;;2.40;;
35306;SDS011;21420;52.196;21.416;2023-07-29T10:11:18;2.50;;;2.40;;
35306;SDS011;21420;52.196;21.416;2023-07-29T10:13:47;2.80;;;2.60;;
35306;SDS011;21420;52.196;21.416;2023-07-29T10:16:32;2.30;;;2.10;;
35306;SDS011;21420;52.196;21.416;2023-07-29T10:19:01;2.20;;;2.10;;
35306;SDS011;21420;52.196;21.416;2023-07-29T10:21:28;2.70;;;2.30;;
35306;SDS011;21420;52.196;21.416;2023-07-29T10:23:56;3.20;;;2.40;;
35306;SDS011;21420;52.196;21.416;2023-07-29T10:26:29;2.30;;;2.10;;
35306;SDS011;21420;52.196;21.416;2023-07-29T10:28:59;2.00;;;1.90;;
35306;SDS011;21420;52.196;21.416;2023-07-29T10:31:31;2.20;;;2.00;;
35306;SDS011;21420;52.196;21.416;2023-07-29T10:33:59;2.00;;;1.80;;
35306;SDS011;21420;52.196;21.416;2023-07-29T10:36:27;1.90;;;1.80;;
35306;SDS011;21420;52.196;21.416;2023-07-29T10:38:55;2.10;;;2.00;;
35306;SDS011;21420;52.196;21.416;2023-07-29T10:41:22;2.20;;;2.00;;
35306;SDS011;21420;52.196;21.416;2023-07-29T10:43:49;1.50;;;1.40;;
35306;SDS011;21420;52.196;21.416;2023-07-29T10:46:16;1.80;;;1.70;;
35306;SDS011;21420;52.196;21.416;2023-07-29T10:53:54;1.90;;;1.70;;
35306;SDS011;21420;52.196;21.416;2023-07-29T10:56:28;1.90;;;1.80;;
35306;SDS011;21420;52.196;21.416;2023-07-29T10:58:56;2.00;;;1.90;;
35306;SDS011;21420;52.196;21.416;2023-07-29T11:01:30;1.90;;;1.80;;
35306;SDS011;21420;52.196;21.416;2023-07-29T11:04:22;2.50;;;1.50;;
35306;SDS011;21420;52.196;21.416;2023-07-29T11:15:19;1.50;;;1.40;;
35306;SDS011;21420;52.196;21.416;2023-07-29T11:17:57;1.60;;;1.50;;
35306;SDS011;21420;52.196;21.416;2023-07-29T11:20:25;1.50;;;1.40;;
35306;SDS011;21420;52.196;21.416;2023-07-29T11:22:57;1.60;;;1.50;;
35306;SDS011;21420;52.196;21.416;2023-07-29T11:25:26;1.70;;;1.20;;
35306;SDS011;21420;52.196;21.416;2023-07-29T11:27:55;1.70;;;1.60;;
35306;SDS011;21420;52.196;21.416;2023-07-29T11:30:24;1.20;;;1.20;;
35306;SDS011;21420;52.196;21.416;2023-07-29T11:32:55;1.50;;;1.40;;
35306;SDS011;21420;52.196;21.416;2023-07-29T11:35:23;1.20;;;1.20;;
35306;SDS011;21420;52.196;21.416;2023-07-29T11:37:51;1.30;;;1.30;;
35306;SDS011;21420;52.196;21.416;2023-07-29T11:40:20;1.10;;;1.10;;
35306;SDS011;21420;52.196;21.416;2023-07-29T11:45:17;1.20;;;1.10;;
35306;SDS011;21420;52.196;21.416;2023-07-29T11:47:45;1.70;;;1.20;;
35306;SDS011;21420;52.196;21.416;2023-07-29T11:50:13;1.50;;;1.40;;
35306;SDS011;21420;52.196;21.416;2023-07-29T11:52:41;1.90;;;1.30;;
35306;SDS011;21420;52.196;21.416;2023-07-29T11:55:09;1.30;;;1.20;;
35306;SDS011;21420;52.196;21.416;2023-07-29T11:57:38;1.40;;;1.30;;
35306;SDS011;21420;52.196;21.416;2023-07-29T12:00:06;1.20;;;1.20;;
35306;SDS011;21420;52.196;21.416;2023-07-29T12:02:39;1.60;;;1.50;;
35306;SDS011;21420;52.196;21.416;2023-07-29T12:05:08;3.10;;;1.30;;
35306;SDS011;21420;52.196;21.416;2023-07-29T12:07:39;2.70;;;1.50;;
35306;SDS011;21420;52.196;21.416;2023-07-29T12:10:08;1.20;;;1.20;;
35306;SDS011;21420;52.196;21.416;2023-07-29T12:12:48;3.60;;;1.50;;
35306;SDS011;21420;52.196;21.416;2023-07-29T12:15:26;1.80;;;1.30;;
35306;SDS011;21420;52.196;21.416;2023-07-29T12:17:58;1.30;;;1.30;;
35306;SDS011;21420;52.196;21.416;2023-07-29T12:20:26;1.50;;;1.40;;
35306;SDS011;21420;52.196;21.416;2023-07-29T12:22:54;1.30;;;1.20;;
35306;SDS011;21420;52.196;21.416;2023-07-29T12:25:22;1.50;;;1.40;;
35306;SDS011;21420;52.196;21.416;2023-07-29T12:27:49;3.70;;;1.30;;
35306;SDS011;21420;52.196;21.416;2023-07-29T12:30:19;1.90;;;1.10;;
35306;SDS011;21420;52.196;21.416;2023-07-29T12:32:47;1.10;;;1.10;;
35306;SDS011;21420;52.196;21.416;2023-07-29T12:35:14;1.40;;;1.30;;
35306;SDS011;21420;52.196;21.416;2023-07-29T12:37:42;1.50;;;1.40;;
35306;SDS011;21420;52.196;21.416;2023-07-29T12:42:50;1.80;;;1.50;;
35306;SDS011;21420;52.196;21.416;2023-07-29T12:45:18;3.50;;;1.30;;
35306;SDS011;21420;52.196;21.416;2023-07-29T12:47:44;1.40;;;1.30;;
35306;SDS011;21420;52.196;21.416;2023-07-29T12:50:12;2.10;;;1.50;;
35306;SDS011;21420;52.196;21.416;2023-07-29T12:52:38;1.50;;;1.40;;
35306;SDS011;21420;52.196;21.416;2023-07-29T12:55:05;1.70;;;1.60;;
35306;SDS011;21420;52.196;21.416;2023-07-29T12:57:35;1.70;;;1.60;;
35306;SDS011;21420;52.196;21.416;2023-07-29T13:00:02;1.80;;;1.70;;
35306;SDS011;21420;52.196;21.416;2023-07-29T13:02:31;2.40;;;1.60;;
35306;SDS011;21420;52.196;21.416;2023-07-29T13:04:58;2.50;;;1.50;;
35306;SDS011;21420;52.196;21.416;2023-07-29T13:07:25;3.20;;;1.90;;
35306;SDS011;21420;52.196;21.416;2023-07-29T13:09:51;3.10;;;1.70;;
35306;SDS011;21420;52.196;21.416;2023-07-29T13:12:18;4.60;;;1.70;;
35306;SDS011;21420;52.196;21.416;2023-07-29T13:14:45;3.30;;;2.60;;
35306;SDS011;21420;52.196;21.416;2023-07-29T13:17:11;1.70;;;1.60;;
35306;SDS011;21420;52.196;21.416;2023-07-29T13:19:39;1.60;;;1.50;;
35306;SDS011;21420;52.196;21.416;2023-07-29T13:22:05;1.70;;;1.60;;
35306;SDS011;21420;52.196;21.416;2023-07-29T13:24:32;1.80;;;1.70;;
35306;SDS011;21420;52.196;21.416;2023-07-29T13:26:58;1.60;;;1.50;;
35306;SDS011;21420;52.196;21.416;2023-07-29T13:29:25;2.30;;;1.50;;
35306;SDS011;21420;52.196;21.416;2023-07-29T13:31:52;1.80;;;1.70;;
35306;SDS011;21420;52.196;21.416;2023-07-29T13:34:19;1.90;;;1.80;;
35306;SDS011;21420;52.196;21.416;2023-07-29T13:36:45;1.70;;;1.60;;
35306;SDS011;21420;52.196;21.416;2023-07-29T13:39:12;1.80;;;1.70;;
35306;SDS011;21420;52.196;21.416;2023-07-29T13:41:39;1.50;;;1.40;;
35306;SDS011;21420;52.196;21.416;2023-07-29T13:44:05;1.90;;;1.80;;
35306;SDS011;21420;52.196;21.416;2023-07-29T13:46:32;1.80;;;1.70;;
35306;SDS011;21420;52.196;21.416;2023-07-29T13:48:59;1.90;;;1.80;;
35306;SDS011;21420;52.196;21.416;2023-07-29T13:51:25;2.90;;;1.80;;
35306;SDS011;21420;52.196;21.416;2023-07-29T13:53:52;2.10;;;1.90;;
35306;SDS011;21420;52.196;21.416;2023-07-29T13:56:19;2.10;;;1.90;;
35306;SDS011;21420;52.196;21.416;2023-07-29T13:58:45;1.90;;;1.80;;
35306;SDS011;21420;52.196;21.416;2023-07-29T14:01:12;1.90;;;1.80;;
35306;SDS011;21420;52.196;21.416;2023-07-29T14:03:39;2.10;;;1.90;;
35306;SDS011;21420;52.196;21.416;2023-07-29T14:06:05;2.70;;;2.10;;
35306;SDS011;21420;52.196;21.416;2023-07-29T14:08:32;1.80;;;1.70;;
35306;SDS011;21420;52.196;21.416;2023-07-29T14:10:59;2.10;;;1.90;;
35306;SDS011;21420;52.196;21.416;2023-07-29T14:13:25;3.20;;;1.80;;
35306;SDS011;21420;52.196;21.416;2023-07-29T14:15:52;1.70;;;1.60;;
35306;SDS011;21420;52.196;21.416;2023-07-29T14:18:19;2.40;;;2.20;;
35306;SDS011;21420;52.196;21.416;2023-07-29T14:20:46;1.90;;;1.70;;
35306;SDS011;21420;52.196;21.416;2023-07-29T14:23:13;2.00;;;1.90;;
35306;SDS011;21420;52.196;21.416;2023-07-29T14:25:39;2.60;;;2.00;;
35306;SDS011;21420;52.196;21.416;2023-07-29T14:28:06;1.90;;;1.80;;
35306;SDS011;21420;52.196;21.416;2023-07-29T14:30:33;1.70;;;1.60;;
35306;SDS011;21420;52.196;21.416;2023-07-29T14:33:00;3.30;;;2.20;;
35306;SDS011;21420;52.196;21.416;2023-07-29T14:35:27;1.70;;;1.60;;
35306;SDS011;21420;52.196;21.416;2023-07-29T14:37:54;1.70;;;1.60;;
35306;SDS011;21420;52.196;21.416;2023-07-29T14:40:20;2.20;;;1.90;;
35306;SDS011;21420;52.196;21.416;2023-07-29T14:42:47;1.90;;;1.80;;
35306;SDS011;21420;52.196;21.416;2023-07-29T14:45:13;2.00;;;1.90;;
35306;SDS011;21420;52.196;21.416;2023-07-29T14:47:40;2.10;;;2.00;;
35306;SDS011;21420;52.196;21.416;2023-07-29T14:50:07;3.50;;;2.10;;
35306;SDS011;21420;52.196;21.416;2023-07-29T14:52:34;3.40;;;2.10;;